createdAt,value
2017-09-07T08:28:50.196Z,21.44
2017-09-07T08:30:02.895Z,21.5
2017-09-07T08:31:14.616Z,21.5
2017-09-07T08:32:22.236Z,21.5
2017-09-07T08:33:33.053Z,21.56
2017-09-07T09:24:48.619Z,22.88
2017-09-07T09:26:05.982Z,23
2017-09-07T11:32:28.481Z,23.5
2017-09-07T12:31:13.167Z,23.5
2017-09-07T14:39:15.601Z,24.19
2017-09-07T14:42:16.786Z,24.25
2017-09-07T15:05:43.393Z,22.13
2017-09-07T15:30:00.239Z,22.19
2017-09-07T15:41:56.228Z,22.19
2017-09-07T15:53:49.479Z,22.19
2017-09-07T16:05:42.798Z,22.19
2017-09-07T16:17:40.420Z,22.13
2017-09-07T16:29:34.130Z,22.06
2017-09-07T16:41:27.046Z,22
2017-09-07T16:53:20.950Z,22
2017-09-07T17:05:14.541Z,22
2017-09-07T17:17:08.509Z,22
2017-09-07T17:29:01.553Z,22.06
2017-09-07T17:40:54.005Z,22.06
2017-09-07T17:52:47.633Z,22.06
2017-09-07T18:04:43.070Z,22.06
2017-09-07T18:16:37.223Z,22.13
2017-09-07T18:28:33.953Z,22.19
2017-09-07T18:40:39.074Z,22.13
2017-09-07T18:52:41.461Z,21.94
2017-09-07T19:04:40.180Z,21.81
2017-09-07T19:16:38.159Z,21.69
2017-09-07T19:28:38.897Z,21.56
2017-09-07T19:40:42.708Z,21.5
2017-09-07T19:52:39.207Z,21.44
2017-09-07T20:04:34.910Z,21.5
2017-09-07T20:16:32.604Z,21.56
2017-09-07T20:28:28.760Z,21.63
2017-09-07T20:40:27.542Z,21.69
2017-09-07T20:52:24.513Z,21.75
2017-09-07T21:04:19.017Z,21.81
2017-09-07T21:16:15.336Z,21.81
2017-09-07T21:28:11.312Z,21.81
2017-09-07T21:40:05.097Z,21.88
2017-09-07T21:52:00.686Z,21.88
2017-09-07T22:03:54.384Z,21.88
2017-09-07T22:15:49.050Z,21.88
2017-09-07T22:27:43.143Z,21.88
2017-09-07T22:39:36.402Z,21.88
2017-09-07T22:51:31.362Z,21.88
2017-09-07T23:03:31.308Z,21.88
2017-09-07T23:27:43.709Z,21.88
2017-09-07T23:39:36.827Z,21.88
2017-09-07T23:51:31.451Z,21.88
